createdAt,value
2024-01-06T00:04:44.472Z,67.80
2024-01-06T00:12:10.312Z,69.03
2024-01-06T00:17:02.401Z,69.94
2024-01-06T00:21:54.503Z,69.42
2024-01-06T00:26:46.328Z,69.20
2024-01-06T00:31:38.304Z,70.05
2024-01-06T00:36:31.173Z,70.98
2024-01-06T00:41:23.056Z,75.84
2024-01-06T00:46:14.896Z,75.69
2024-01-06T00:51:07.326Z,76.89
2024-01-06T00:55:59.327Z,77.45
2024-01-06T01:00:51.324Z,76.85
2024-01-06T01:05:43.477Z,74.26
2024-01-06T01:10:35.525Z,75.03
2024-01-06T01:15:27.430Z,75.05
2024-01-06T01:20:19.620Z,78.22
2024-01-06T01:25:13.466Z,78.84
2024-01-06T01:30:06.941Z,78.24
2024-01-06T01:34:59.142Z,80.21
2024-01-06T01:39:51.131Z,80.40
2024-01-06T01:44:43.030Z,78.97
2024-01-06T01:49:35.385Z,77.35
2024-01-06T01:54:28.359Z,75.71
2024-01-06T01:59:21.515Z,75.17
2024-01-06T02:04:14.451Z,76.16
2024-01-06T02:09:06.952Z,75.87
2024-01-06T02:13:59.086Z,75.63
2024-01-06T02:18:51.324Z,79.82
2024-01-06T02:23:43.475Z,82.76
2024-01-06T02:28:35.472Z,82.16
2024-01-06T02:33:27.706Z,80.52
2024-01-06T02:38:19.710Z,82.90
2024-01-06T02:43:11.755Z,80.94
2024-01-06T02:48:04.157Z,81.56
2024-01-06T02:52:56.219Z,83.93
2024-01-06T02:57:48.267Z,82.76
2024-01-06T03:02:43.096Z,83.56
2024-01-06T03:07:35.094Z,84.19
2024-01-06T03:12:27.177Z,84.41
2024-01-06T03:17:19.340Z,84.45
2024-01-06T03:22:11.313Z,84.30
2024-01-06T03:27:03.778Z,84.55
2024-01-06T03:31:55.687Z,80.08
2024-01-06T03:36:47.856Z,80.64
2024-01-06T03:41:40.018Z,82.98
2024-01-06T03:46:31.945Z,79.82
2024-01-06T03:51:24.610Z,79.14
2024-01-06T03:56:16.893Z,78.86
2024-01-06T04:01:08.864Z,77.33
2024-01-06T04:06:01.012Z,76.71
2024-01-06T04:10:53.013Z,77.84
2024-01-06T04:15:45.801Z,80.61
2024-01-06T04:20:38.438Z,77.77
2024-01-06T04:25:30.273Z,80.15
2024-01-06T04:30:22.577Z,81.35
2024-01-06T04:35:14.959Z,83.84
2024-01-06T04:40:07.543Z,81.30
2024-01-06T04:44:59.659Z,80.66
2024-01-06T04:49:51.979Z,78.67
2024-01-06T04:54:44.097Z,78.07
2024-01-06T04:59:36.143Z,75.78
2024-01-06T05:04:28.280Z,75.62
2024-01-06T05:09:20.356Z,75.33
2024-01-06T05:14:13.073Z,76.21
2024-01-06T05:19:05.160Z,76.24
2024-01-06T05:23:57.575Z,76.82
2024-01-06T05:28:50.142Z,76.48
2024-01-06T05:33:42.209Z,77.70
2024-01-06T05:38:34.181Z,77.89
2024-01-06T05:43:26.327Z,77.72
2024-01-06T05:48:18.684Z,77.71
2024-01-06T05:53:11.979Z,79.36
2024-01-06T05:58:05.203Z,79.68
2024-01-06T06:02:57.224Z,80.24
2024-01-06T06:07:49.252Z,80.89
2024-01-06T06:12:41.306Z,81.21
2024-01-06T06:17:34.299Z,81.55
2024-01-06T06:22:32.103Z,82.59
2024-01-06T06:27:25.211Z,81.68
2024-01-06T06:32:17.918Z,80.90
2024-01-06T06:37:10.039Z,79.54
2024-01-06T06:42:02.692Z,78.17
2024-01-06T06:46:54.615Z,76.94
2024-01-06T06:51:50.017Z,76.28
2024-01-06T06:56:42.503Z,76.28
2024-01-06T07:01:35.610Z,74.43
2024-01-06T07:06:27.660Z,73.70
2024-01-06T07:11:20.542Z,73.77
2024-01-06T07:16:19.121Z,72.99
2024-01-06T07:21:14.057Z,73.15
2024-01-06T07:26:06.534Z,73.16
2024-01-06T07:30:58.701Z,72.77
2024-01-06T07:35:54.179Z,72.00
2024-01-06T07:40:46.086Z,71.81
2024-01-06T07:45:38.866Z,72.15
2024-01-06T07:50:30.952Z,72.93
2024-01-06T07:55:22.922Z,73.05
2024-01-06T08:00:17.704Z,73.25
2024-01-06T08:05:10.890Z,73.17
2024-01-06T08:10:06.542Z,73.39
2024-01-06T08:14:58.705Z,73.43
2024-01-06T08:19:50.909Z,73.28
2024-01-06T08:24:43.004Z,73.36
2024-01-06T08:29:35.839Z,72.78
2024-01-06T08:34:32.161Z,73.16
2024-01-06T08:39:26.304Z,73.19
2024-01-06T08:44:18.193Z,73.09
2024-01-06T08:49:10.496Z,71.86
2024-01-06T08:54:06.005Z,71.54
2024-01-06T08:58:58.481Z,70.69
2024-01-06T09:03:51.449Z,70.54
2024-01-06T09:08:43.498Z,69.79
2024-01-06T09:13:35.566Z,69.83
2024-01-06T09:18:29.657Z,70.18
2024-01-06T09:23:25.168Z,70.10
2024-01-06T09:28:17.897Z,69.99
2024-01-06T09:33:10.400Z,70.07
2024-01-06T09:38:02.688Z,70.13
2024-01-06T09:42:55.616Z,71.06
2024-01-06T09:47:52.727Z,71.22
2024-01-06T09:52:50.674Z,71.03
2024-01-06T09:57:42.818Z,69.76
2024-01-06T10:02:34.990Z,69.53
2024-01-06T10:07:30.667Z,68.49
2024-01-06T10:12:26.786Z,68.55
2024-01-06T10:17:19.703Z,68.02
2024-01-06T10:22:12.692Z,67.78
2024-01-06T10:27:05.494Z,68.95
2024-01-06T10:31:59.334Z,69.33
2024-01-06T10:36:55.383Z,68.85
2024-01-06T10:41:50.002Z,67.30
2024-01-06T10:46:43.145Z,66.22
2024-01-06T10:51:35.858Z,67.34
2024-01-06T10:56:31.576Z,65.90
2024-01-06T11:01:30.418Z,65.66
2024-01-06T11:06:23.961Z,65.53
2024-01-06T11:11:18.208Z,65.17
2024-01-06T11:16:11.020Z,65.50
2024-01-06T11:21:29.348Z,65.38
2024-01-06T11:26:21.478Z,64.93
2024-01-06T11:31:14.774Z,63.97
2024-01-06T11:36:11.062Z,64.64
2024-01-06T11:41:03.216Z,64.86
2024-01-06T11:46:02.030Z,64.48
2024-01-06T11:50:54.226Z,65.58
2024-01-06T11:55:46.369Z,65.94
2024-01-06T12:00:41.491Z,66.13
2024-01-06T12:05:34.231Z,66.29
2024-01-06T12:10:29.149Z,65.68
2024-01-06T12:15:21.200Z,67.41
2024-01-06T12:20:13.545Z,68.90
2024-01-06T12:25:07.746Z,69.95
2024-01-06T12:29:59.834Z,70.55
2024-01-06T12:34:52.350Z,72.10
2024-01-06T12:39:46.739Z,72.58
2024-01-06T12:44:40.544Z,74.13
2024-01-06T12:49:33.546Z,73.73
2024-01-06T12:54:26.643Z,74.71
2024-01-06T12:59:20.150Z,75.57
2024-01-06T13:04:12.764Z,75.99
2024-01-06T13:09:07.651Z,78.31
2024-01-06T13:13:59.798Z,78.26
2024-01-06T13:24:05.672Z,77.38
2024-01-06T13:28:57.802Z,76.58
2024-01-06T13:33:50.100Z,75.62
2024-01-06T13:38:45.589Z,75.62
2024-01-06T13:43:50.027Z,76.90
2024-01-06T13:48:50.670Z,76.66
2024-01-06T13:53:48.865Z,76.52
2024-01-06T13:58:45.923Z,76.25
2024-01-06T14:03:42.414Z,75.89
2024-01-06T14:08:51.338Z,75.48
2024-01-06T14:13:51.389Z,74.72
2024-01-06T14:18:46.251Z,74.50
2024-01-06T14:23:48.980Z,74.73
2024-01-06T14:28:41.588Z,74.80
2024-01-06T14:33:36.297Z,75.75
2024-01-06T14:38:28.496Z,76.10
2024-01-06T14:43:21.933Z,76.32
2024-01-06T14:48:13.990Z,75.89
2024-01-06T14:53:06.346Z,75.95
2024-01-06T14:57:58.533Z,74.72
2024-01-06T15:02:51.261Z,75.93
2024-01-06T15:07:43.186Z,75.33
2024-01-06T15:12:35.617Z,77.17
2024-01-06T15:17:27.661Z,77.61
2024-01-06T15:22:19.916Z,78.08
2024-01-06T15:27:12.300Z,78.95
2024-01-06T15:32:04.946Z,79.75
2024-01-06T15:36:57.090Z,79.08
2024-01-06T15:42:01.947Z,79.78
2024-01-06T15:46:58.744Z,80.26
2024-01-06T15:51:51.086Z,79.23
2024-01-06T15:56:43.123Z,79.79
2024-01-06T16:01:35.632Z,79.38
2024-01-06T16:06:28.551Z,79.32
2024-01-06T16:11:21.257Z,79.16
2024-01-06T16:16:14.861Z,79.57
2024-01-06T16:21:07.294Z,80.82
2024-01-06T16:26:00.299Z,80.73
2024-01-06T16:30:54.079Z,80.51
2024-01-06T16:35:47.619Z,81.27
2024-01-06T16:40:42.823Z,80.87
2024-01-06T16:45:35.414Z,80.52
2024-01-06T16:50:27.456Z,81.22
2024-01-06T16:55:20.060Z,81.58
2024-01-06T17:00:13.102Z,82.27
2024-01-06T17:05:06.270Z,82.70
2024-01-06T17:10:01.389Z,83.80
2024-01-06T17:14:53.696Z,84.64
2024-01-06T17:19:48.544Z,85.47
2024-01-06T17:24:40.934Z,85.58
2024-01-06T17:29:33.859Z,85.00
2024-01-06T17:34:27.030Z,84.66
2024-01-06T17:39:20.874Z,84.05
2024-01-06T17:44:14.028Z,83.57
2024-01-06T17:49:07.846Z,83.01
2024-01-06T17:54:02.250Z,82.64
2024-01-06T17:58:54.777Z,81.90
2024-01-06T18:03:47.099Z,80.99
2024-01-06T18:08:39.508Z,81.14
2024-01-06T18:13:31.658Z,80.85
2024-01-06T18:18:23.948Z,79.50
2024-01-06T18:23:17.701Z,79.67
2024-01-06T18:28:09.895Z,78.00
2024-01-06T18:33:02.011Z,78.89
2024-01-06T18:37:55.227Z,78.73
2024-01-06T18:42:47.348Z,78.49
2024-01-06T18:47:43.037Z,77.88
2024-01-06T18:52:35.366Z,77.56
2024-01-06T18:57:27.552Z,75.77
2024-01-06T19:02:19.914Z,75.30
2024-01-06T19:07:11.930Z,75.01
2024-01-06T19:12:04.580Z,74.92
2024-01-06T19:16:56.686Z,74.52
2024-01-06T19:21:49.853Z,74.18
2024-01-06T19:26:42.822Z,74.19
2024-01-06T19:31:36.053Z,74.05
2024-01-06T19:36:28.034Z,73.64
2024-01-06T19:41:20.249Z,73.16
2024-01-06T19:46:13.051Z,73.36
2024-01-06T19:51:06.106Z,73.38
2024-01-06T19:56:02.782Z,73.58
2024-01-06T20:00:55.069Z,73.11
2024-01-06T20:05:47.231Z,74.03
2024-01-06T20:10:39.350Z,73.15
2024-01-06T20:15:32.360Z,73.35
2024-01-06T20:20:24.707Z,73.49
2024-01-06T20:25:16.982Z,73.12
2024-01-06T20:30:10.278Z,74.30
2024-01-06T20:35:02.459Z,73.30
2024-01-06T20:39:55.914Z,74.51
2024-01-06T20:44:48.348Z,73.79
2024-01-06T20:49:41.150Z,74.10
2024-01-06T20:54:33.159Z,73.67
2024-01-06T20:59:27.498Z,74.07
2024-01-06T21:04:19.473Z,74.13
2024-01-06T21:09:11.683Z,73.92
2024-01-06T21:14:03.949Z,74.49
2024-01-06T21:18:57.173Z,74.42
2024-01-06T21:23:49.801Z,74.22
2024-01-06T21:28:43.689Z,74.29
2024-01-06T21:33:36.528Z,73.46
2024-01-06T21:38:31.785Z,72.83
2024-01-06T21:43:24.183Z,73.31
2024-01-06T21:48:16.693Z,73.01
2024-01-06T21:53:08.582Z,72.97
2024-01-06T21:58:01.646Z,72.26
2024-01-06T22:02:54.131Z,72.42
2024-01-06T22:07:46.165Z,72.26
2024-01-06T22:12:38.363Z,72.37
2024-01-06T22:17:32.073Z,73.14
2024-01-06T22:22:25.876Z,73.47
2024-01-06T22:27:18.013Z,73.20
2024-01-06T22:32:10.660Z,72.70
2024-01-06T22:37:03.571Z,72.96
2024-01-06T22:41:57.505Z,72.19
2024-01-06T22:46:49.665Z,72.70
2024-01-06T22:51:41.512Z,72.08
2024-01-06T22:56:33.664Z,72.75
2024-01-06T23:01:25.832Z,72.39
2024-01-06T23:06:18.532Z,72.10
2024-01-06T23:11:15.244Z,72.01
2024-01-06T23:16:07.680Z,72.12
2024-01-06T23:21:00.495Z,71.62
2024-01-06T23:25:53.461Z,71.62
2024-01-06T23:30:45.640Z,71.81
2024-01-06T23:35:38.613Z,71.64
2024-01-06T23:40:30.710Z,72.18
2024-01-06T23:45:23.737Z,71.87
2024-01-06T23:50:15.712Z,72.35
2024-01-06T23:55:08.201Z,72.05
